Time;durP1;ratioP1;P1;durP2;ratioP2;P2;SDS_P1;SDS_P2;PMS_P1;PMS_P2;Temp;Humidity;BMP_temperature;BMP_pressure;BME280_temperature;BME280_humidity;BME280_pressure;Samples;Min_cycle;Max_cycle;Signal;HPM_P1;HPM_P2
2022/03/02 00:02:29;;;;;;;20.90;10.70;;;;;;;-4.49;66.03;97643.69;107471;1273;42309;-74
2022/03/02 00:05:00;;;;;;;23.20;12.10;;;;;;;-4.53;66.01;97639.41;107510;1273;40100;-74
2022/03/02 00:07:31;;;;;;;18.90;9.80;;;;;;;-4.53;66.05;97635.84;107532;1274;32335;-73
2022/03/02 00:10:02;;;;;;;15.40;9.70;;;;;;;-4.56;66.02;97631.89;107448;1274;58469;-74
2022/03/02 00:12:33;;;;;;;19.00;8.90;;;;;;;-4.55;66.22;97630.52;107497;1274;35751;-74
2022/03/02 00:15:05;;;;;;;14.30;8.10;;;;;;;-4.50;66.66;97631.39;107477;1273;46479;-74
2022/03/02 00:17:36;;;;;;;12.50;8.00;;;;;;;-4.50;66.80;97627.77;107441;1274;56815;-74
2022/03/02 00:20:08;;;;;;;15.70;8.50;;;;;;;-4.53;66.83;97620.66;107411;1274;42526;-73
2022/03/02 00:22:39;;;;;;;18.60;11.00;;;;;;;-4.56;66.72;97620.08;107475;1274;42291;-73
2022/03/02 00:25:10;;;;;;;21.90;11.60;;;;;;;-4.57;66.62;97614.35;107503;1273;32690;-74
2022/03/02 00:27:41;;;;;;;22.00;11.70;;;;;;;-4.59;66.42;97617.68;107530;1273;33060;-74
2022/03/02 00:30:12;;;;;;;21.10;10.20;;;;;;;-4.63;66.66;97614.50;107523;1273;48382;-74
2022/03/02 00:32:44;;;;;;;22.00;12.10;;;;;;;-4.66;66.60;97610.30;107471;1273;30121;-74
2022/03/02 00:35:15;;;;;;;20.90;12.70;;;;;;;-4.65;66.48;97609.29;107479;1273;46418;-74
2022/03/02 00:37:46;;;;;;;33.70;15.60;;;;;;;-4.61;66.59;97608.23;107488;1273;41879;-74
2022/03/02 00:40:18;;;;;;;33.60;18.30;;;;;;;-4.67;67.11;97609.41;107419;1272;60391;-74
2022/03/02 00:42:49;;;;;;;27.40;13.60;;;;;;;-4.80;67.18;97603.13;107422;1274;40492;-74
2022/03/02 00:45:20;;;;;;;20.20;10.30;;;;;;;-4.87;67.45;97603.80;107511;1274;44591;-73
2022/03/02 00:47:51;;;;;;;18.40;10.50;;;;;;;-4.84;67.69;97595.94;107496;1273;31181;-73
2022/03/02 00:50:23;;;;;;;23.20;12.10;;;;;;;-4.81;67.66;97600.53;107533;1272;45485;-73
2022/03/02 00:52:55;;;;;;;19.50;10.80;;;;;;;-4.81;67.77;97603.02;107514;1274;35868;-75
2022/03/02 00:55:27;;;;;;;22.30;10.90;;;;;;;-4.85;67.60;97598.20;107515;1273;29947;-74
2022/03/02 00:57:57;;;;;;;21.60;11.50;;;;;;;-4.83;67.57;97596.14;107535;1272;42926;-74
2022/03/02 01:00:28;;;;;;;20.50;12.00;;;;;;;-4.80;67.35;97592.16;107481;1273;43424;-73
2022/03/02 01:03:00;;;;;;;20.50;10.20;;;;;;;-4.74;67.43;97595.81;107474;1273;43500;-74
2022/03/02 01:05:31;;;;;;;20.60;10.60;;;;;;;-4.72;67.72;97594.55;107482;1273;39223;-74
2022/03/02 01:08:02;;;;;;;18.60;10.50;;;;;;;-4.70;67.47;97590.04;107514;1273;40270;-74
2022/03/02 01:10:34;;;;;;;17.00;9.90;;;;;;;-4.64;67.26;97588.59;107451;1273;72934;-74
2022/03/02 01:13:05;;;;;;;17.90;9.70;;;;;;;-4.61;67.08;97584.98;107452;1273;47104;-74
2022/03/02 01:15:37;;;;;;;18.40;10.10;;;;;;;-4.62;67.05;97581.55;107503;1273;43035;-73
2022/03/02 01:18:07;;;;;;;18.00;9.90;;;;;;;-4.57;66.96;97583.14;107516;1273;41225;-74
2022/03/02 01:20:39;;;;;;;27.10;13.10;;;;;;;-4.57;67.12;97581.59;107511;1273;35768;-74
2022/03/02 01:23:10;;;;;;;19.30;10.40;;;;;;;-4.69;67.22;97578.36;107482;1273;43440;-74
2022/03/02 01:25:41;;;;;;;39.20;19.70;;;;;;;-4.92;67.71;97576.20;107500;1273;33306;-73
2022/03/02 01:28:12;;;;;;;22.00;11.40;;;;;;;-5.10;68.39;97576.36;107534;1273;35912;-74
2022/03/02 01:30:43;;;;;;;20.00;12.00;;;;;;;-5.10;68.46;97580.14;107425;1273;49943;-73
2022/03/02 01:33:14;;;;;;;23.10;11.70;;;;;;;-5.03;68.11;97579.48;107446;1273;51387;-74
2022/03/02 01:35:45;;;;;;;18.00;10.70;;;;;;;-4.96;68.03;97578.73;107476;1272;64559;-74
2022/03/02 01:38:16;;;;;;;16.90;10.60;;;;;;;-4.90;67.95;97569.45;107498;1273;34218;-73
2022/03/02 01:40:47;;;;;;;20.30;11.70;;;;;;;-4.86;68.25;97566.77;107460;1273;35001;-74
2022/03/02 01:43:18;;;;;;;22.50;11.90;;;;;;;-4.82;67.87;97565.48;107387;1273;49912;-74
2022/03/02 01:45:49;;;;;;;20.40;11.80;;;;;;;-4.74;67.54;97563.69;107509;1273;43714;-74
2022/03/02 01:48:20;;;;;;;17.30;11.10;;;;;;;-4.69;67.33;97559.25;107532;1273;34613;-74
2022/03/02 01:50:50;;;;;;;19.30;10.40;;;;;;;-4.70;67.44;97561.42;107505;1273;57615;-74
2022/03/02 01:53:21;;;;;;;27.30;13.10;;;;;;;-4.79;68.00;97555.55;107523;1273;31479;-74
2022/03/02 01:55:55;;;;;;;36.00;16.40;;;;;;;-4.92;68.32;97553.25;107554;1273;36523;-74
2022/03/02 01:58:27;;;;;;;46.50;20.90;;;;;;;-4.99;68.55;97552.20;107612;1273;34682;-74
2022/03/02 02:01:00;;;;;;;40.60;18.90;;;;;;;-5.02;68.55;97555.36;107486;1271;44033;-74
2022/03/02 02:03:31;;;;;;;32.90;16.00;;;;;;;-4.99;68.67;97553.52;107496;1273;43684;-73
2022/03/02 02:06:03;;;;;;;31.60;15.20;;;;;;;-4.95;68.47;97548.77;107209;1273;391669;-74
2022/03/02 02:08:35;;;;;;;24.80;14.00;;;;;;;-4.90;68.30;97544.95;107483;1273;41877;-74
2022/03/02 02:11:06;;;;;;;25.40;13.90;;;;;;;-4.84;68.22;97544.21;107464;1273;38811;-74
2022/03/02 02:13:38;;;;;;;23.80;12.90;;;;;;;-4.80;68.04;97544.80;107485;1273;51977;-74
2022/03/02 02:16:09;;;;;;;23.90;13.00;;;;;;;-4.79;68.10;97548.63;107509;1272;36405;-74
2022/03/02 02:18:40;;;;;;;24.30;13.40;;;;;;;-4.84;68.25;97548.67;107497;1273;41005;-74
2022/03/02 02:21:12;;;;;;;21.50;11.00;;;;;;;-4.92;68.87;97548.66;107505;1273;34453;-74
2022/03/02 02:23:42;;;;;;;22.20;13.40;;;;;;;-4.98;69.38;97544.59;107473;1273;38543;-74
2022/03/02 02:26:13;;;;;;;22.40;12.90;;;;;;;-4.99;69.53;97540.36;107506;1273;41626;-73
2022/03/02 02:28:46;;;;;;;22.10;11.50;;;;;;;-4.92;69.44;97543.27;107525;1273;37552;-74
2022/03/02 02:31:17;;;;;;;26.10;13.20;;;;;;;-4.85;69.26;97542.02;107451;1273;40593;-73
2022/03/02 02:33:48;;;;;;;26.40;13.80;;;;;;;-4.80;69.03;97537.91;107439;1273;46606;-73
2022/03/02 02:36:20;;;;;;;18.80;11.30;;;;;;;-4.76;68.83;97537.95;107493;1273;45257;-74
2022/03/02 02:38:51;;;;;;;18.10;9.90;;;;;;;-4.73;68.95;97534.29;107469;1273;43174;-74
2022/03/02 02:41:22;;;;;;;17.20;9.50;;;;;;;-4.73;69.30;97533.09;107457;1271;43872;-73
2022/03/02 02:43:53;;;;;;;15.30;8.20;;;;;;;-4.80;69.37;97526.98;107477;1273;44374;-74
2022/03/02 02:46:23;;;;;;;17.50;8.70;;;;;;;-4.77;69.45;97526.81;107554;1273;39913;-74
2022/03/02 02:48:54;;;;;;;14.70;8.90;;;;;;;-4.68;69.78;97521.02;107499;1274;43694;-74
2022/03/02 02:51:25;;;;;;;17.90;9.20;;;;;;;-4.65;69.82;97521.89;107471;1274;29013;-74
2022/03/02 02:53:56;;;;;;;15.60;9.50;;;;;;;-4.67;70.13;97517.45;107527;1273;40224;-74
2022/03/02 02:56:27;;;;;;;18.20;9.90;;;;;;;-4.65;70.26;97516.86;107507;1272;33875;-74
2022/03/02 02:58:58;;;;;;;24.90;12.90;;;;;;;-4.64;70.22;97521.27;107371;1273;131974;-74
2022/03/02 03:01:29;;;;;;;21.70;11.90;;;;;;;-4.75;70.12;97521.73;107451;1273;47539;-74
2022/03/02 03:04:00;;;;;;;19.70;11.60;;;;;;;-4.84;69.89;97520.16;107469;1273;43228;-74
2022/03/02 03:06:31;;;;;;;22.50;12.10;;;;;;;-4.85;69.91;97518.09;107459;1272;45293;-73
2022/03/02 03:09:02;;;;;;;20.60;12.40;;;;;;;-4.85;70.00;97516.32;107511;1273;32373;-74
2022/03/02 03:11:33;;;;;;;26.70;12.80;;;;;;;-4.80;69.74;97520.69;107546;1273;32783;-73
2022/03/02 03:14:10;;;;;;;21.50;13.30;;;;;;;-4.74;69.81;97519.80;107518;1273;87084;-74
2022/03/02 03:16:42;;;;;;;23.50;14.10;;;;;;;-4.72;69.78;97522.97;107510;1273;40157;-73
2022/03/02 03:19:13;;;;;;;25.70;13.80;;;;;;;-4.69;69.62;97526.95;107534;1273;33049;-73
2022/03/02 03:21:44;;;;;;;21.90;12.80;;;;;;;-4.65;69.40;97525.92;107474;1273;32232;-73
2022/03/02 03:24:15;;;;;;;25.10;14.20;;;;;;;-4.66;69.41;97521.94;107485;1273;37391;-73
2022/03/02 03:26:47;;;;;;;24.80;13.80;;;;;;;-4.64;69.22;97522.02;107494;1273;33753;-73
2022/03/02 03:29:18;;;;;;;22.10;13.30;;;;;;;-4.65;69.20;97522.59;107514;1273;33237;-73
2022/03/02 03:31:49;;;;;;;25.60;13.80;;;;;;;-4.67;69.27;97521.05;107457;1273;32447;-73
2022/03/02 03:34:20;;;;;;;24.60;13.70;;;;;;;-4.67;69.24;97520.41;107433;1272;42176;-75
2022/03/02 03:36:52;;;;;;;25.50;13.00;;;;;;;-4.69;69.33;97517.11;107533;1273;31467;-73
2022/03/02 03:39:23;;;;;;;22.70;13.00;;;;;;;-4.69;69.53;97521.15;107531;1273;31825;-73
2022/03/02 03:41:55;;;;;;;26.40;14.30;;;;;;;-4.73;69.62;97517.27;107487;1274;36421;-74
2022/03/02 03:44:26;;;;;;;24.50;12.90;;;;;;;-4.80;70.03;97520.50;107555;1273;33761;-73
2022/03/02 03:46:57;;;;;;;24.30;13.30;;;;;;;-4.85;70.15;97515.52;107517;1273;34936;-74
2022/03/02 03:49:28;;;;;;;24.80;13.90;;;;;;;-4.86;70.20;97516.26;107485;1273;36854;-74
2022/03/02 03:51:59;;;;;;;22.40;12.30;;;;;;;-4.83;69.88;97511.17;107488;1273;45250;-74
2022/03/02 03:54:30;;;;;;;20.10;11.50;;;;;;;-4.85;69.82;97509.69;107530;1273;34137;-74
2022/03/02 03:57:01;;;;;;;21.00;12.20;;;;;;;-4.88;70.06;97506.01;107482;1272;41503;-74
2022/03/02 03:59:32;;;;;;;25.00;13.10;;;;;;;-4.90;70.25;97498.29;107507;1273;41681;-74
2022/03/02 04:02:03;;;;;;;23.70;13.80;;;;;;;-4.89;70.41;97500.45;107500;1273;30320;-74
2022/03/02 04:04:34;;;;;;;28.70;14.00;;;;;;;-4.90;70.21;97500.52;107496;1273;37230;-73
2022/03/02 04:07:05;;;;;;;25.30;14.60;;;;;;;-5.02;70.12;97495.89;107518;1273;27817;-74
2022/03/02 04:09:36;;;;;;;23.90;13.00;;;;;;;-5.15;70.59;97494.66;107513;1273;32128;-74
2022/03/02 04:12:09;;;;;;;30.00;15.00;;;;;;;-5.27;71.39;97496.79;107512;1273;31684;-74
2022/03/02 04:14:40;;;;;;;26.10;14.60;;;;;;;-5.33;71.69;97496.55;107489;1273;32701;-73
2022/03/02 04:17:11;;;;;;;30.00;16.50;;;;;;;-5.36;71.64;97497.83;107480;1273;34122;-74
2022/03/02 04:19:43;;;;;;;26.30;13.80;;;;;;;-5.39;71.58;97499.02;107505;1273;36730;-73
2022/03/02 04:22:14;;;;;;;23.40;13.60;;;;;;;-5.38;71.53;97498.33;107476;1273;42353;-74
2022/03/02 04:24:45;;;;;;;26.70;13.40;;;;;;;-5.35;71.30;97497.95;107463;1273;42432;-73
2022/03/02 04:27:16;;;;;;;23.90;12.40;;;;;;;-5.32;71.10;97493.84;107511;1272;39196;-73
2022/03/02 04:29:47;;;;;;;25.50;14.00;;;;;;;-5.29;70.82;97494.55;107501;1272;44756;-73
2022/03/02 04:32:18;;;;;;;22.00;12.60;;;;;;;-5.23;70.72;97493.92;107473;1273;34945;-73
2022/03/02 04:34:49;;;;;;;23.20;11.80;;;;;;;-5.18;70.69;97493.63;107496;1273;43658;-73
2022/03/02 04:37:20;;;;;;;19.50;11.20;;;;;;;-5.20;70.78;97490.84;107443;1274;41729;-73
2022/03/02 04:39:51;;;;;;;19.90;11.90;;;;;;;-5.37;71.21;97489.20;107417;1273;46808;-73
2022/03/02 04:42:22;;;;;;;24.10;13.00;;;;;;;-5.51;71.28;97484.36;107480;1273;48790;-73
2022/03/02 04:44:53;;;;;;;16.50;10.30;;;;;;;-5.51;71.53;97484.74;107501;1273;42244;-73
2022/03/02 04:47:24;;;;;;;21.10;10.80;;;;;;;-5.48;71.79;97488.20;107555;1274;34057;-73
2022/03/02 04:49:55;;;;;;;18.40;9.90;;;;;;;-5.42;71.76;97486.50;107508;1273;41986;-73
2022/03/02 04:52:25;;;;;;;19.60;11.70;;;;;;;-5.42;71.47;97486.77;107485;1272;52003;-73
2022/03/02 04:55:09;;;;;;;17.30;10.90;;;;;;;-5.45;71.66;97479.35;107488;1274;51123;-73
2022/03/02 04:57:43;;;;;;;25.50;13.90;;;;;;;-5.48;71.63;97480.77;107481;1273;42970;-74
2022/03/02 05:00:16;;;;;;;23.00;13.40;;;;;;;-5.41;71.53;97478.40;107511;1273;40196;-73
2022/03/02 05:02:47;;;;;;;22.90;12.10;;;;;;;-5.35;71.57;97483.42;107503;1273;34156;-74
2022/03/02 05:05:21;;;;;;;26.10;13.90;;;;;;;-5.28;71.37;97485.00;107395;1273;86037;-73
2022/03/02 05:07:52;;;;;;;26.70;14.30;;;;;;;-5.21;71.15;97487.35;107504;1273;45315;-73
2022/03/02 05:10:24;;;;;;;21.80;14.30;;;;;;;-5.14;71.05;97486.94;107525;1273;42504;-73
2022/03/02 05:12:56;;;;;;;25.80;13.40;;;;;;;-5.04;71.05;97482.15;107521;1271;56898;-73
2022/03/02 05:15:27;;;;;;;23.40;14.30;;;;;;;-4.97;70.95;97481.45;107494;1273;42836;-76
2022/03/02 05:17:59;;;;;;;25.30;14.20;;;;;;;-4.99;71.04;97479.77;107459;1272;43699;-73
2022/03/02 05:20:30;;;;;;;30.00;15.80;;;;;;;-4.99;71.01;97480.64;107480;1273;34058;-74
2022/03/02 05:23:01;;;;;;;26.80;15.30;;;;;;;-4.94;71.23;97485.07;107439;1272;45039;-74
2022/03/02 05:25:32;;;;;;;26.60;15.50;;;;;;;-4.86;71.07;97484.96;107514;1272;30913;-73
2022/03/02 05:28:03;;;;;;;27.20;15.50;;;;;;;-4.79;70.91;97483.88;107517;1272;47794;-74
2022/03/02 05:30:34;;;;;;;29.80;15.80;;;;;;;-4.76;70.76;97480.00;107463;1272;32559;-73
2022/03/02 05:33:06;;;;;;;26.00;14.20;;;;;;;-4.76;71.05;97482.72;107428;1273;30107;-73
2022/03/02 05:35:37;;;;;;;21.40;12.50;;;;;;;-4.76;71.11;97479.14;107507;1273;36878;-73
2022/03/02 05:38:08;;;;;;;24.80;11.60;;;;;;;-4.75;71.30;97478.29;107447;1273;43337;-73
2022/03/02 05:40:39;;;;;;;20.90;11.70;;;;;;;-4.72;71.36;97474.02;107495;1273;43271;-73
2022/03/02 05:43:10;;;;;;;16.20;10.80;;;;;;;-4.69;71.19;97471.45;107509;1273;37637;-73
2022/03/02 05:45:41;;;;;;;20.20;11.50;;;;;;;-4.66;71.65;97470.06;107530;1273;40296;-73
2022/03/02 05:48:12;;;;;;;18.80;11.60;;;;;;;-4.62;71.68;97469.70;107495;1273;30993;-73
2022/03/02 05:50:43;;;;;;;19.50;11.60;;;;;;;-4.58;71.65;97470.10;107444;1273;52162;-73
2022/03/02 05:53:14;;;;;;;35.10;17.50;;;;;;;-4.53;71.57;97471.95;107467;1273;32719;-73
2022/03/02 05:55:45;;;;;;;35.50;18.60;;;;;;;-4.46;71.23;97472.29;107454;1273;44726;-73
2022/03/02 05:58:16;;;;;;;40.00;21.80;;;;;;;-4.38;71.10;97473.63;107486;1273;44045;-73
2022/03/02 06:00:47;;;;;;;34.60;19.40;;;;;;;-4.31;71.01;97478.38;107443;1273;51492;-74
2022/03/02 06:03:19;;;;;;;40.80;22.00;;;;;;;-4.25;71.33;97470.51;107430;1273;51875;-73
2022/03/02 06:05:51;;;;;;;39.30;21.40;;;;;;;-4.23;71.66;97471.64;107542;1273;38371;-73
2022/03/02 06:08:22;;;;;;;38.50;22.60;;;;;;;-4.21;71.87;97470.85;107391;1274;48947;-73
2022/03/02 06:11:06;;;;;;;41.80;23.00;;;;;;;-4.15;71.80;97474.88;107555;1273;29824;-73
2022/03/02 06:13:38;;;;;;;43.90;24.50;;;;;;;-4.06;71.31;97476.80;107425;1273;45805;-73
2022/03/02 06:16:12;;;;;;;45.80;25.10;;;;;;;-3.95;71.31;97476.41;107448;1273;43822;-74
2022/03/02 06:18:45;;;;;;;39.00;23.00;;;;;;;-3.85;71.87;97472.64;107547;1273;32783;-74
2022/03/02 06:21:20;;;;;;;35.40;21.50;;;;;;;-3.76;72.22;97469.94;107510;1273;33572;-73
2022/03/02 06:23:51;;;;;;;36.90;20.00;;;;;;;-3.69;72.14;97467.73;107521;1272;31783;-73
2022/03/02 06:26:24;;;;;;;36.10;19.20;;;;;;;-3.60;71.63;97466.80;107571;1273;31764;-73
2022/03/02 06:28:55;;;;;;;39.70;21.30;;;;;;;-3.53;71.53;97463.77;107549;1273;34258;-73
2022/03/02 06:31:27;;;;;;;33.20;18.90;;;;;;;-3.50;71.49;97462.27;107542;1273;33409;-73
2022/03/02 06:33:57;;;;;;;34.80;19.10;;;;;;;-3.44;71.15;97462.20;107463;1272;46324;-73
2022/03/02 06:36:29;;;;;;;30.60;17.50;;;;;;;-3.34;70.93;97457.33;107446;1273;34765;-73
2022/03/02 06:39:00;;;;;;;29.70;17.30;;;;;;;-3.25;70.80;97455.13;107543;1273;30554;-74
2022/03/02 06:41:38;;;;;;;30.00;17.90;;;;;;;-3.18;70.69;97459.02;107485;1273;41770;-74
2022/03/02 06:44:19;;;;;;;32.10;17.90;;;;;;;-3.08;70.59;97457.86;107469;1272;37786;-73
2022/03/02 06:47:01;;;;;;;35.50;18.00;;;;;;;-2.94;70.60;97462.62;107526;1273;31598;-73
2022/03/02 06:49:45;;;;;;;33.60;18.20;;;;;;;-2.83;70.50;97465.82;107627;1272;34670;-74
2022/03/02 06:52:20;;;;;;;30.40;17.60;;;;;;;-2.72;70.19;97471.25;107471;1273;44358;-73
2022/03/02 06:54:52;;;;;;;30.20;17.90;;;;;;;-2.57;70.13;97474.61;107480;1273;49442;-73
2022/03/02 06:57:29;;;;;;;32.50;19.10;;;;;;;-2.41;70.12;97472.21;107467;1273;39768;-73
2022/03/02 07:00:06;;;;;;;32.40;19.20;;;;;;;-2.22;69.91;97474.83;107534;1273;30468;-74
2022/03/02 07:02:45;;;;;;;35.40;20.10;;;;;;;-2.08;69.55;97472.13;107544;1273;40849;-73
2022/03/02 07:05:18;;;;;;;34.00;19.40;;;;;;;-1.85;69.35;97480.90;107532;1273;30166;-73
2022/03/02 07:07:51;;;;;;;33.00;19.20;;;;;;;-1.68;68.85;97481.63;107558;1273;42066;-73
2022/03/02 07:10:22;;;;;;;35.90;20.20;;;;;;;-1.64;68.13;97488.16;107502;1273;42642;-73
2022/03/02 07:12:53;;;;;;;33.80;19.80;;;;;;;-1.58;67.86;97492.95;107565;1272;37947;-73
2022/03/02 07:15:25;;;;;;;36.00;21.00;;;;;;;-1.39;67.73;97491.56;107511;1273;52951;-73
2022/03/02 07:17:56;;;;;;;39.60;22.80;;;;;;;-0.91;67.66;97487.24;107561;1273;41412;-73
2022/03/02 07:20:28;;;;;;;34.90;20.00;;;;;;;-0.31;67.08;97488.62;107541;1273;43065;-74
2022/03/02 07:23:02;;;;;;;35.50;21.40;;;;;;;0.16;66.65;97489.95;107647;1273;40695;-74
2022/03/02 07:25:38;;;;;;;36.60;20.90;;;;;;;0.41;65.79;97484.26;107689;1273;49658;-74
2022/03/02 07:28:13;;;;;;;34.60;21.30;;;;;;;0.79;65.19;97481.46;107521;1273;30184;-74
2022/03/02 07:30:47;;;;;;;38.00;25.20;;;;;;;1.73;65.13;97479.50;107399;1273;29472;-74
2022/03/02 07:33:20;;;;;;;36.20;24.60;;;;;;;3.42;64.52;97474.23;107538;1273;32826;-73
2022/03/02 07:35:59;;;;;;;32.00;23.30;;;;;;;4.99;62.96;97473.44;107424;1273;41516;-73
2022/03/02 07:38:31;;;;;;;37.00;24.70;;;;;;;6.41;61.01;97466.29;107506;1273;43494;-74
2022/03/02 07:41:05;;;;;;;33.40;23.30;;;;;;;7.67;59.23;97463.62;107434;1273;49901;-74
2022/03/02 07:43:38;;;;;;;32.30;24.20;;;;;;;8.65;57.13;97463.12;107491;1273;41097;-74
2022/03/02 07:46:10;;;;;;;32.80;24.20;;;;;;;9.02;54.42;97460.63;107496;1272;41585;-74
2022/03/02 07:48:41;;;;;;;33.50;25.70;;;;;;;8.16;52.40;97460.45;107481;1272;68201;-74
2022/03/02 07:51:12;;;;;;;35.60;24.90;;;;;;;6.72;51.65;97458.56;107474;1273;40459;-74
2022/03/02 07:53:49;;;;;;;32.70;23.00;;;;;;;5.83;52.62;97458.50;107522;1273;45130;-73
2022/03/02 07:56:21;;;;;;;36.20;24.50;;;;;;;5.43;52.59;97456.47;107483;1273;45775;-74
2022/03/02 07:58:53;;;;;;;37.70;26.40;;;;;;;4.88;52.90;97460.55;107446;1273;74623;-74
2022/03/02 08:01:25;;;;;;;35.30;25.20;;;;;;;4.29;52.67;97465.06;107571;1273;41578;-74
2022/03/02 08:03:58;;;;;;;41.00;27.00;;;;;;;3.82;52.97;97466.27;107545;1273;35828;-74
2022/03/02 08:06:31;;;;;;;40.20;26.60;;;;;;;3.36;53.05;97457.73;107496;1273;35588;-74
2022/03/02 08:09:03;;;;;;;40.50;27.40;;;;;;;3.00;53.17;97456.15;107492;1273;38665;-74
2022/03/02 08:11:39;;;;;;;43.30;28.30;;;;;;;2.83;53.14;97457.48;107527;1273;32611;-73
2022/03/02 08:14:18;;;;;;;42.20;27.10;;;;;;;2.83;53.92;97454.09;107479;1273;40518;-73
2022/03/02 08:16:49;;;;;;;38.20;28.30;;;;;;;3.46;54.38;97452.70;107526;1273;31500;-73
2022/03/02 08:19:21;;;;;;;40.10;28.20;;;;;;;5.55;54.78;97450.77;107446;1274;34588;-73
2022/03/02 08:21:57;;;;;;;40.30;28.10;;;;;;;7.69;52.91;97450.02;107481;1273;39595;-73
2022/03/02 08:24:30;;;;;;;39.10;26.00;;;;;;;8.34;51.08;97446.84;107525;1274;26562;-74
2022/03/02 08:27:04;;;;;;;36.90;25.90;;;;;;;8.25;50.21;97448.18;107465;1275;35507;-73
2022/03/02 08:29:35;;;;;;;35.30;25.70;;;;;;;7.75;49.42;97449.07;107461;1274;28454;-73
2022/03/02 08:32:08;;;;;;;37.50;25.10;;;;;;;7.25;49.11;97446.01;107453;1274;35760;-73
2022/03/02 08:34:43;;;;;;;37.20;25.60;;;;;;;6.79;49.15;97443.42;107471;1275;34468;-73
2022/03/02 08:37:17;;;;;;;37.80;24.80;;;;;;;6.20;48.93;97442.96;107381;1274;41722;-73
2022/03/02 08:39:48;;;;;;;37.10;25.80;;;;;;;5.52;49.21;97442.13;107561;1273;32549;-73
2022/03/02 08:42:19;;;;;;;38.40;25.80;;;;;;;5.81;49.91;97436.98;107459;1273;42241;-73
2022/03/02 08:44:50;;;;;;;37.70;25.10;;;;;;;6.45;49.88;97429.34;107488;1273;32137;-73
2022/03/02 08:47:24;;;;;;;34.40;24.30;;;;;;;7.50;48.91;97426.61;107512;1273;38473;-73
2022/03/02 08:49:55;;;;;;;32.50;23.50;;;;;;;7.68;48.98;97428.16;107605;1273;36648;-73
2022/03/02 08:52:29;;;;;;;35.50;25.60;;;;;;;8.43;48.76;97426.26;107551;1273;29909;-73
2022/03/02 08:55:04;;;;;;;32.20;23.80;;;;;;;8.97;47.08;97423.38;107572;1273;30092;-73
2022/03/02 08:57:36;;;;;;;36.00;23.40;;;;;;;8.59;45.02;97423.45;107522;1273;33007;-73
2022/03/02 09:00:10;;;;;;;32.60;23.70;;;;;;;8.44;44.43;97417.55;107474;1273;31562;-73
2022/03/02 09:02:43;;;;;;;33.00;22.60;;;;;;;8.23;44.51;97415.27;107471;1274;30541;-73
2022/03/02 09:05:14;;;;;;;31.30;21.90;;;;;;;8.19;45.13;97413.02;107522;1273;26633;-73
2022/03/02 09:07:46;;;;;;;29.40;20.80;;;;;;;8.72;45.56;97407.02;107524;1273;32789;-73
2022/03/02 09:10:17;;;;;;;34.00;20.20;;;;;;;8.93;45.15;97399.05;107474;1273;98722;-73
2022/03/02 09:12:48;;;;;;;27.70;19.20;;;;;;;8.76;44.71;97397.48;107547;1273;29200;-73
2022/03/02 09:15:19;;;;;;;28.20;17.80;;;;;;;8.39;44.81;97395.85;107484;1272;39885;-73
2022/03/02 09:17:51;;;;;;;24.10;16.90;;;;;;;7.71;43.71;97394.79;107526;1273;28818;-73
2022/03/02 09:20:22;;;;;;;26.90;18.20;;;;;;;6.35;42.79;97391.61;107516;1273;30611;-73
2022/03/02 09:22:54;;;;;;;24.00;15.60;;;;;;;5.15;44.39;97389.39;107499;1272;29386;-73
2022/03/02 09:25:28;;;;;;;27.00;17.30;;;;;;;4.47;45.22;97392.77;107597;1273;27366;-73
2022/03/02 09:27:59;;;;;;;26.00;16.70;;;;;;;4.01;46.39;97387.86;107588;1273;35592;-74
2022/03/02 09:30:31;;;;;;;26.90;17.00;;;;;;;3.74;46.90;97391.46;107411;1274;41827;-73
2022/03/02 09:33:02;;;;;;;25.20;16.60;;;;;;;3.46;47.55;97389.95;107498;1273;44485;-73
2022/03/02 09:35:34;;;;;;;26.00;16.70;;;;;;;3.27;48.06;97391.42;107478;1273;46731;-73
2022/03/02 09:38:05;;;;;;;25.30;17.00;;;;;;;3.36;48.84;97388.10;107494;1273;41608;-73
2022/03/02 09:40:38;;;;;;;27.80;18.10;;;;;;;3.52;49.08;97385.71;107466;1273;46473;-73
2022/03/02 09:43:16;;;;;;;26.10;16.70;;;;;;;3.67;48.68;97386.26;107511;1273;34718;-73
2022/03/02 09:45:51;;;;;;;24.40;15.60;;;;;;;3.40;48.80;97384.73;107543;1273;35711;-73
2022/03/02 09:48:31;;;;;;;112.30;48.90;;;;;;;3.60;49.50;97380.12;107535;1273;39723;-73
2022/03/02 09:51:04;;;;;;;32.90;20.30;;;;;;;3.95;50.13;97375.32;107564;1273;40023;-73
2022/03/02 09:53:36;;;;;;;29.40;17.40;;;;;;;4.36;49.98;97370.05;107527;1273;36086;-73
2022/03/02 09:56:08;;;;;;;239.90;80.20;;;;;;;4.55;48.84;97366.67;107530;1273;35698;-73
2022/03/02 09:58:41;;;;;;;65.80;38.70;;;;;;;4.47;48.90;97364.73;107559;1273;33025;-73
2022/03/02 10:01:16;;;;;;;31.50;19.60;;;;;;;4.58;48.80;97363.45;107504;1273;39255;-73
2022/03/02 10:03:51;;;;;;;27.30;16.70;;;;;;;4.80;49.05;97356.73;107499;1273;37932;-73
2022/03/02 10:06:23;;;;;;;22.90;14.80;;;;;;;4.89;48.08;97352.38;107523;1273;39182;-73
2022/03/02 10:08:55;;;;;;;23.00;15.10;;;;;;;4.72;48.28;97346.89;107525;1273;38381;-73
2022/03/02 10:11:27;;;;;;;25.60;17.00;;;;;;;4.73;48.23;97342.45;107561;1273;32519;-73
2022/03/02 10:13:59;;;;;;;21.30;14.30;;;;;;;4.72;48.84;97340.16;107539;1273;34224;-73
2022/03/02 10:16:35;;;;;;;20.30;13.60;;;;;;;5.01;48.91;97336.12;107472;1272;37497;-73
2022/03/02 10:19:07;;;;;;;21.20;14.30;;;;;;;5.12;47.84;97338.55;107483;1273;38419;-73
2022/03/02 10:21:50;;;;;;;20.70;13.40;;;;;;;5.11;48.05;97335.85;107546;1272;33563;-74
2022/03/02 10:24:24;;;;;;;21.50;13.30;;;;;;;5.16;47.81;97327.02;107536;1273;31741;-74
2022/03/02 10:27:04;;;;;;;21.00;13.70;;;;;;;4.82;46.31;97327.21;107564;1273;39181;-74
2022/03/02 10:29:49;;;;;;;19.30;12.50;;;;;;;4.45;47.07;97321.14;107515;1273;39142;-74
2022/03/02 10:32:23;;;;;;;20.50;13.00;;;;;;;4.48;47.08;97316.88;107463;1273;58751;-74
2022/03/02 10:35:00;;;;;;;21.60;13.00;;;;;;;4.53;47.87;97314.38;107580;1273;29557;-74
2022/03/02 10:37:34;;;;;;;20.20;13.20;;;;;;;4.93;48.26;97312.59;107538;1273;43623;-74
2022/03/02 10:40:12;;;;;;;17.20;11.40;;;;;;;5.27;48.29;97309.89;107486;1273;43475;-74
2022/03/02 10:42:45;;;;;;;16.60;10.90;;;;;;;5.53;47.59;97304.71;107503;1273;40568;-74
2022/03/02 10:45:22;;;;;;;18.00;11.90;;;;;;;5.66;47.35;97296.11;107534;1273;31286;-74
2022/03/02 10:48:03;;;;;;;19.30;12.30;;;;;;;5.63;46.66;97292.48;107474;1273;42068;-74
2022/03/02 10:50:36;;;;;;;24.60;15.20;;;;;;;5.43;46.54;97289.44;107511;1273;43284;-74
2022/03/02 10:53:12;;;;;;;20.00;13.30;;;;;;;5.39;46.98;97290.84;107473;1275;54077;-74
2022/03/02 10:55:45;;;;;;;21.70;13.70;;;;;;;5.43;46.93;97276.60;107485;1273;39082;-74
2022/03/02 10:58:18;;;;;;;19.30;11.70;;;;;;;5.44;46.87;97272.99;107497;1273;42888;-73
2022/03/02 11:00:50;;;;;;;19.00;11.90;;;;;;;5.60;47.13;97267.85;107492;1273;42179;-74
2022/03/02 11:03:23;;;;;;;17.90;12.30;;;;;;;5.79;47.23;97259.98;107499;1273;31728;-74
2022/03/02 11:05:56;;;;;;;19.00;10.90;;;;;;;5.66;45.45;97261.34;107515;1273;36512;-74
2022/03/02 11:08:29;;;;;;;16.50;11.30;;;;;;;5.01;45.16;97256.91;107670;1274;31655;-74
2022/03/02 11:11:04;;;;;;;15.90;11.80;;;;;;;4.69;46.00;97252.84;107514;1273;31594;-74
2022/03/02 11:13:35;;;;;;;19.40;13.10;;;;;;;4.90;47.16;97252.29;107495;1274;40112;-74
2022/03/02 11:16:08;;;;;;;21.90;14.20;;;;;;;5.16;47.02;97250.90;107520;1273;42691;-74
2022/03/02 11:18:40;;;;;;;19.50;12.70;;;;;;;5.32;46.99;97245.73;107545;1273;36602;-74
2022/03/02 11:21:14;;;;;;;20.10;12.70;;;;;;;5.44;46.62;97246.65;107415;1274;39942;-74
2022/03/02 11:23:46;;;;;;;19.10;13.00;;;;;;;5.53;46.65;97243.55;107577;1273;80140;-75
2022/03/02 11:26:23;;;;;;;21.60;12.90;;;;;;;5.50;46.95;97242.22;107442;1274;43239;-74
2022/03/02 11:28:59;;;;;;;17.90;11.70;;;;;;;5.64;46.97;97237.56;107549;1273;41762;-74
2022/03/02 11:31:32;;;;;;;18.00;11.50;;;;;;;5.71;46.31;97231.19;107381;1274;28551;-74
2022/03/02 11:34:15;;;;;;;18.10;12.10;;;;;;;5.29;45.20;97238.27;107541;1273;28513;-74
2022/03/02 11:36:49;;;;;;;20.00;12.00;;;;;;;5.07;46.44;97227.83;107552;1273;30247;-74